Time;durP1;ratioP1;P1;durP2;ratioP2;P2;SDS_P1;SDS_P2;PMS_P1;PMS_P2;Temp;Humidity;BMP_temperature;BMP_pressure;BME280_temperature;BME280_humidity;BME280_pressure;Samples;Min_cycle;Max_cycle;Signal;HPM_P1;HPM_P2
2021/08/10 00:00:13;;;;;;;5.82;2.60;;;;;;;;;;4882431;29;20274;-84
2021/08/10 00:02:39;;;;;;;4.43;2.80;;;;;;;;;;4886859;29;20053;-82
2021/08/10 00:05:05;;;;;;;6.00;3.00;;;;;;;;;;4885378;29;20053;-85
2021/08/10 00:07:30;;;;;;;6.72;3.33;;;;;;;;;;4889980;29;20055;-82
2021/08/10 00:09:55;;;;;;;6.23;3.23;;;;;;;;;;4886752;29;20033;-81
2021/08/10 00:12:22;;;;;;;6.28;3.25;;;;;;;;;;4878794;29;21072;-84
2021/08/10 00:14:47;;;;;;;5.15;2.60;;;;;;;;;;4884159;29;20495;-82
2021/08/10 00:17:13;;;;;;;4.47;2.80;;;;;;;;;;4883679;29;20064;-83
2021/08/10 00:19:39;;;;;;;4.97;2.38;;;;;;;;;;4885673;29;20060;-85
2021/08/10 00:22:04;;;;;;;5.40;2.90;;;;;;;;;;4881589;29;20020;-84
2021/08/10 00:24:29;;;;;;;7.60;2.63;;;;;;;;;;4880032;29;20033;-83
2021/08/10 00:26:55;;;;;;;8.10;2.77;;;;;;;;;;4884479;29;20033;-83
2021/08/10 00:29:20;;;;;;;7.57;3.00;;;;;;;;;;4878350;29;20379;-83
2021/08/10 00:31:45;;;;;;;7.63;2.80;;;;;;;;;;4889785;29;20044;-82
2021/08/10 00:34:10;;;;;;;5.03;3.00;;;;;;;;;;4879311;29;20281;-81
2021/08/10 00:36:36;;;;;;;6.97;3.25;;;;;;;;;;4878009;29;20685;-82
2021/08/10 00:39:04;;;;;;;5.10;2.67;;;;;;;;;;4883480;29;20384;-82
2021/08/10 00:41:30;;;;;;;4.57;2.90;;;;;;;;;;4884554;29;20750;-82
2021/08/10 00:43:56;;;;;;;3.72;2.55;;;;;;;;;;4885340;29;20109;-82
2021/08/10 00:46:21;;;;;;;6.00;2.60;;;;;;;;;;4882595;29;20028;-83
2021/08/10 00:48:46;;;;;;;6.70;2.57;;;;;;;;;;4879957;29;20021;-82
2021/08/10 00:51:12;;;;;;;4.10;2.43;;;;;;;;;;4887667;29;20277;-82
2021/08/10 00:53:38;;;;;;;5.72;2.97;;;;;;;;;;4885598;29;20288;-82
2021/08/10 00:56:04;;;;;;;4.53;2.50;;;;;;;;;;4880268;29;20773;-83
2021/08/10 00:58:31;;;;;;;5.13;2.53;;;;;;;;;;4883345;29;20028;-83
2021/08/10 01:00:56;;;;;;;5.90;2.67;;;;;;;;;;4880368;29;20717;-82
2021/08/10 01:03:21;;;;;;;5.28;2.22;;;;;;;;;;4884742;29;20037;-83
2021/08/10 01:05:48;;;;;;;3.63;2.20;;;;;;;;;;4881038;29;20112;-83
2021/08/10 01:08:16;;;;;;;5.43;2.75;;;;;;;;;;4879040;29;20615;-84
2021/08/10 01:10:44;;;;;;;3.30;2.40;;;;;;;;;;4887220;29;20143;-83
2021/08/10 01:13:16;;;;;;;6.45;2.72;;;;;;;;;;4888905;29;20047;-83
2021/08/10 01:15:52;;;;;;;6.15;2.75;;;;;;;;;;4886450;29;20058;-82
2021/08/10 01:18:40;;;;;;;6.82;2.58;;;;;;;;;;4885437;29;20084;-83
2021/08/10 01:21:19;;;;;;;8.70;3.63;;;;;;;;;;4880715;29;20140;-83
2021/08/10 01:23:46;;;;;;;4.85;2.70;;;;;;;;;;4881304;29;20061;-84
2021/08/10 01:26:30;;;;;;;8.10;2.92;;;;;;;;;;4884690;29;20036;-82
2021/08/10 01:29:03;;;;;;;3.78;2.65;;;;;;;;;;4884484;29;20350;-82
2021/08/10 01:31:31;;;;;;;7.78;3.17;;;;;;;;;;4873407;29;20399;-83
2021/08/10 01:34:09;;;;;;;4.35;2.55;;;;;;;;;;4882368;29;20544;-83
2021/08/10 01:36:37;;;;;;;3.83;2.35;;;;;;;;;;4879321;29;20380;-82
2021/08/10 01:39:03;;;;;;;4.70;2.65;;;;;;;;;;4884000;29;20405;-83
2021/08/10 01:41:30;;;;;;;6.55;2.55;;;;;;;;;;4884899;29;20033;-82
2021/08/10 01:43:57;;;;;;;3.42;2.50;;;;;;;;;;4880358;29;20379;-82
2021/08/10 01:46:24;;;;;;;5.93;2.60;;;;;;;;;;4884140;29;20371;-83
2021/08/10 01:48:50;;;;;;;7.50;3.00;;;;;;;;;;4882255;29;20516;-82
2021/08/10 01:51:16;;;;;;;8.73;2.88;;;;;;;;;;4878158;29;20390;-82
2021/08/10 01:53:41;;;;;;;5.82;3.08;;;;;;;;;;4877635;29;20021;-82
2021/08/10 01:56:07;;;;;;;6.53;2.67;;;;;;;;;;4885126;29;20044;-82
2021/08/10 01:58:35;;;;;;;5.50;2.83;;;;;;;;;;4882357;29;20492;-83
2021/08/10 02:01:00;;;;;;;3.85;2.72;;;;;;;;;;4878774;29;20421;-82
2021/08/10 02:03:26;;;;;;;5.90;2.78;;;;;;;;;;4881861;29;20036;-82
2021/08/10 02:05:52;;;;;;;5.97;3.25;;;;;;;;;;4886465;29;20041;-82
2021/08/10 02:08:18;;;;;;;4.53;2.42;;;;;;;;;;4884380;29;20505;-82
2021/08/10 02:10:44;;;;;;;5.05;2.75;;;;;;;;;;4883845;29;20018;-82
2021/08/10 02:13:11;;;;;;;6.05;2.80;;;;;;;;;;4867763;29;20025;-83
2021/08/10 02:15:38;;;;;;;4.82;2.53;;;;;;;;;;4877887;29;20055;-83
2021/08/10 02:18:04;;;;;;;6.15;2.65;;;;;;;;;;4887570;29;20037;-83
2021/08/10 02:20:29;;;;;;;5.00;2.83;;;;;;;;;;4888224;29;20028;-83
2021/08/10 02:22:54;;;;;;;5.70;3.20;;;;;;;;;;4883070;29;20055;-82
2021/08/10 02:25:22;;;;;;;4.93;2.47;;;;;;;;;;4883214;29;20040;-83
2021/08/10 02:27:52;;;;;;;7.53;3.35;;;;;;;;;;4886883;29;20475;-83
2021/08/10 02:30:21;;;;;;;4.40;2.53;;;;;;;;;;4878824;29;20450;-82
2021/08/10 02:32:47;;;;;;;7.18;3.03;;;;;;;;;;4883691;29;20649;-83
2021/08/10 02:35:15;;;;;;;5.82;2.38;;;;;;;;;;4882327;29;20036;-81
2021/08/10 02:37:42;;;;;;;4.65;2.85;;;;;;;;;;4883910;29;20417;-82
2021/08/10 02:40:09;;;;;;;3.78;2.72;;;;;;;;;;4881256;29;20384;-82
2021/08/10 02:42:34;;;;;;;3.53;2.55;;;;;;;;;;4887242;29;20021;-81
2021/08/10 02:45:01;;;;;;;4.53;2.67;;;;;;;;;;4889536;29;20040;-82
2021/08/10 02:47:27;;;;;;;5.03;2.70;;;;;;;;;;4892351;29;20021;-83
2021/08/10 02:49:53;;;;;;;5.18;3.53;;;;;;;;;;4885304;29;20036;-83
2021/08/10 02:52:18;;;;;;;8.68;2.97;;;;;;;;;;4887166;29;20491;-81
2021/08/10 02:54:43;;;;;;;5.28;3.13;;;;;;;;;;4888705;29;20044;-82
2021/08/10 02:57:27;;;;;;;7.50;2.80;;;;;;;;;;4882049;29;20017;-82
2021/08/10 02:59:53;;;;;;;6.97;3.03;;;;;;;;;;4886680;29;20705;-82
2021/08/10 03:02:20;;;;;;;6.07;2.92;;;;;;;;;;4881524;29;20609;-82
2021/08/10 03:04:47;;;;;;;3.50;2.75;;;;;;;;;;4885711;29;20529;-81
2021/08/10 03:07:13;;;;;;;9.43;3.67;;;;;;;;;;4883954;29;20055;-82
2021/08/10 03:09:38;;;;;;;6.32;2.88;;;;;;;;;;4886108;29;20025;-82
2021/08/10 03:12:05;;;;;;;4.38;2.72;;;;;;;;;;4892655;29;20047;-82
2021/08/10 03:14:31;;;;;;;5.40;3.10;;;;;;;;;;4889684;29;20525;-81
2021/08/10 03:16:57;;;;;;;6.78;3.10;;;;;;;;;;4892444;29;20086;-82
2021/08/10 03:19:23;;;;;;;7.20;2.83;;;;;;;;;;4881745;29;20483;-81
2021/08/10 03:21:49;;;;;;;4.93;2.97;;;;;;;;;;4878072;29;20013;-82
2021/08/10 03:24:15;;;;;;;4.35;2.95;;;;;;;;;;4885744;29;20502;-82
2021/08/10 03:26:40;;;;;;;4.68;3.13;;;;;;;;;;4885442;29;20402;-82
2021/08/10 03:29:06;;;;;;;5.00;2.90;;;;;;;;;;4885273;29;20025;-82
2021/08/10 03:31:32;;;;;;;6.47;2.92;;;;;;;;;;4883999;29;20021;-82
2021/08/10 03:33:57;;;;;;;4.03;2.65;;;;;;;;;;4882102;29;20056;-82
2021/08/10 03:36:24;;;;;;;5.35;2.75;;;;;;;;;;4888615;29;20023;-82
2021/08/10 03:38:50;;;;;;;3.83;2.50;;;;;;;;;;4880828;29;20469;-82
2021/08/10 03:41:16;;;;;;;5.25;2.92;;;;;;;;;;4882714;29;20392;-82
2021/08/10 03:43:42;;;;;;;7.03;3.25;;;;;;;;;;4881019;29;20032;-83
2021/08/10 03:46:08;;;;;;;3.67;2.70;;;;;;;;;;4879911;29;20329;-83
2021/08/10 03:48:37;;;;;;;11.77;3.47;;;;;;;;;;4887560;29;20119;-82
2021/08/10 03:51:02;;;;;;;6.93;3.03;;;;;;;;;;4887097;29;20349;-82
2021/08/10 03:53:29;;;;;;;7.32;2.80;;;;;;;;;;4885588;29;20073;-82
2021/08/10 03:55:54;;;;;;;6.53;2.92;;;;;;;;;;4883852;29;20059;-83
2021/08/10 03:58:22;;;;;;;5.50;2.90;;;;;;;;;;4878692;29;20037;-82
2021/08/10 04:00:48;;;;;;;6.22;3.47;;;;;;;;;;4886408;29;20665;-81
2021/08/10 04:03:13;;;;;;;7.13;2.78;;;;;;;;;;4885051;29;20337;-82
2021/08/10 04:05:45;;;;;;;5.35;3.03;;;;;;;;;;4882223;29;20042;-82
2021/08/10 04:08:13;;;;;;;7.15;3.22;;;;;;;;;;4879242;29;20427;-82
2021/08/10 04:10:40;;;;;;;5.07;2.78;;;;;;;;;;4882126;29;20373;-82
2021/08/10 04:13:07;;;;;;;6.57;2.80;;;;;;;;;;4887107;29;20056;-82
2021/08/10 04:15:32;;;;;;;5.82;3.05;;;;;;;;;;4880823;29;20052;-82
2021/08/10 04:17:57;;;;;;;6.43;3.30;;;;;;;;;;4882493;29;20063;-82
2021/08/10 04:20:23;;;;;;;5.40;2.80;;;;;;;;;;4882293;29;20624;-82
2021/08/10 04:22:49;;;;;;;7.97;2.65;;;;;;;;;;4882226;29;20667;-82
2021/08/10 04:25:14;;;;;;;3.97;2.88;;;;;;;;;;4883615;29;20032;-82
2021/08/10 04:27:40;;;;;;;5.33;2.97;;;;;;;;;;4890743;29;20043;-82
2021/08/10 04:30:06;;;;;;;6.40;3.55;;;;;;;;;;4883317;29;20706;-81
2021/08/10 04:32:31;;;;;;;6.43;3.08;;;;;;;;;;4878946;29;20029;-83
2021/08/10 04:34:58;;;;;;;8.88;3.35;;;;;;;;;;4884411;29;20077;-83
2021/08/10 04:37:24;;;;;;;4.05;3.00;;;;;;;;;;4878579;29;20388;-82
2021/08/10 04:39:49;;;;;;;4.77;3.20;;;;;;;;;;4879426;29;20021;-82
2021/08/10 04:42:14;;;;;;;6.03;2.60;;;;;;;;;;4867085;29;20266;-83
2021/08/10 04:44:40;;;;;;;5.22;3.20;;;;;;;;;;4875924;29;20293;-82
2021/08/10 04:47:05;;;;;;;7.13;3.53;;;;;;;;;;4879047;29;20679;-82
2021/08/10 04:49:30;;;;;;;6.53;3.55;;;;;;;;;;4883078;29;20100;-82
2021/08/10 04:51:56;;;;;;;5.25;2.72;;;;;;;;;;4883449;29;20021;-83
2021/08/10 04:54:21;;;;;;;9.13;3.30;;;;;;;;;;4887523;29;20029;-81
2021/08/10 04:56:46;;;;;;;11.18;3.00;;;;;;;;;;4891143;29;20251;-82
2021/08/10 04:59:12;;;;;;;4.50;2.85;;;;;;;;;;4884932;29;20033;-82
2021/08/10 05:01:39;;;;;;;6.73;3.13;;;;;;;;;;4879697;29;20065;-82
2021/08/10 05:04:04;;;;;;;6.70;2.97;;;;;;;;;;4881493;29;20292;-82
2021/08/10 05:06:30;;;;;;;5.30;3.28;;;;;;;;;;4882794;29;20476;-82
2021/08/10 05:08:55;;;;;;;6.78;2.80;;;;;;;;;;4880528;29;20033;-79
2021/08/10 05:11:20;;;;;;;6.37;3.13;;;;;;;;;;4884240;29;20021;-82
2021/08/10 05:13:46;;;;;;;4.95;2.70;;;;;;;;;;4879566;29;20261;-82
2021/08/10 05:16:11;;;;;;;6.07;3.10;;;;;;;;;;4873590;29;20029;-83
2021/08/10 05:18:36;;;;;;;6.97;3.37;;;;;;;;;;4877561;29;20037;-84
2021/08/10 05:21:02;;;;;;;7.05;2.95;;;;;;;;;;4877923;29;20024;-84
2021/08/10 05:23:27;;;;;;;7.13;3.20;;;;;;;;;;4882647;29;20108;-82
2021/08/10 05:25:52;;;;;;;6.65;3.15;;;;;;;;;;4881990;29;20165;-85
2021/08/10 05:28:18;;;;;;;6.53;3.50;;;;;;;;;;4886750;29;20060;-82
2021/08/10 05:30:43;;;;;;;5.82;2.97;;;;;;;;;;4879712;29;20017;-82
2021/08/10 05:33:12;;;;;;;5.55;3.38;;;;;;;;;;4881088;29;20515;-82
2021/08/10 05:35:38;;;;;;;7.88;3.85;;;;;;;;;;4875970;29;20114;-82
2021/08/10 05:38:03;;;;;;;7.25;3.35;;;;;;;;;;4885666;29;20025;-82
2021/08/10 05:40:29;;;;;;;8.23;3.20;;;;;;;;;;4896032;29;20024;-81
2021/08/10 05:42:54;;;;;;;7.47;3.05;;;;;;;;;;4888480;29;20108;-82
2021/08/10 05:45:19;;;;;;;7.40;3.00;;;;;;;;;;4885423;29;20060;-81
2021/08/10 05:47:44;;;;;;;6.23;3.43;;;;;;;;;;4884423;29;20305;-81
2021/08/10 05:50:10;;;;;;;7.90;3.47;;;;;;;;;;4883435;29;20288;-81
2021/08/10 05:52:35;;;;;;;7.05;3.50;;;;;;;;;;4881232;29;20737;-80
2021/08/10 05:55:00;;;;;;;9.40;4.13;;;;;;;;;;4880357;29;20545;-85
2021/08/10 05:57:26;;;;;;;8.43;3.93;;;;;;;;;;4879476;29;20021;-83
2021/08/10 05:59:51;;;;;;;6.73;3.37;;;;;;;;;;4878530;29;20776;-83
2021/08/10 06:02:16;;;;;;;15.90;8.73;;;;;;;;;;4883382;29;20760;-82
2021/08/10 06:04:42;;;;;;;8.45;4.70;;;;;;;;;;4895583;29;20048;-83
2021/08/10 06:07:07;;;;;;;7.43;3.35;;;;;;;;;;4897607;29;20029;-80
2021/08/10 06:09:33;;;;;;;6.28;3.70;;;;;;;;;;4887643;29;20496;-81
2021/08/10 06:11:58;;;;;;;7.20;3.17;;;;;;;;;;4883636;29;20033;-81
2021/08/10 06:14:24;;;;;;;6.38;3.80;;;;;;;;;;4881911;29;20076;-80
2021/08/10 06:16:49;;;;;;;8.30;3.60;;;;;;;;;;4880104;29;20029;-80
2021/08/10 06:19:14;;;;;;;7.57;3.30;;;;;;;;;;4883223;29;20025;-82
2021/08/10 06:21:40;;;;;;;6.53;3.15;;;;;;;;;;4879115;29;20261;-78
2021/08/10 06:24:05;;;;;;;6.50;3.35;;;;;;;;;;4864731;29;20029;-78
2021/08/10 06:26:31;;;;;;;9.38;3.20;;;;;;;;;;4877840;29;20021;-79
2021/08/10 06:28:56;;;;;;;7.27;3.73;;;;;;;;;;4877753;29;20094;-79
2021/08/10 06:31:21;;;;;;;6.05;2.92;;;;;;;;;;4877824;29;20320;-79
2021/08/10 06:33:47;;;;;;;7.13;2.92;;;;;;;;;;4874424;29;20029;-78
2021/08/10 06:36:12;;;;;;;8.40;5.00;;;;;;;;;;4867025;29;20017;-78
2021/08/10 06:38:38;;;;;;;7.85;3.50;;;;;;;;;;4880765;29;20567;-78
2021/08/10 06:41:03;;;;;;;7.85;3.10;;;;;;;;;;4880065;29;20031;-79
2021/08/10 06:43:28;;;;;;;8.07;3.07;;;;;;;;;;4877208;29;20021;-78
2021/08/10 06:45:54;;;;;;;9.13;4.18;;;;;;;;;;4877670;29;20357;-78
2021/08/10 06:48:19;;;;;;;9.40;5.03;;;;;;;;;;4877579;29;20067;-79
2021/08/10 06:50:45;;;;;;;5.80;4.00;;;;;;;;;;4878255;29;20093;-78
2021/08/10 06:53:11;;;;;;;6.55;3.30;;;;;;;;;;4883164;29;20076;-78
2021/08/10 06:55:36;;;;;;;5.38;3.17;;;;;;;;;;4877929;29;20711;-79
2021/08/10 06:58:01;;;;;;;7.70;3.17;;;;;;;;;;4877651;29;20029;-79
2021/08/10 07:00:26;;;;;;;11.97;3.10;;;;;;;;;;4877723;29;20076;-79
2021/08/10 07:02:52;;;;;;;7.57;3.20;;;;;;;;;;4886430;29;20372;-79
2021/08/10 07:05:17;;;;;;;9.52;3.42;;;;;;;;;;4876217;29;20014;-79
2021/08/10 07:07:43;;;;;;;8.98;3.00;;;;;;;;;;4877469;29;20033;-80
2021/08/10 07:10:08;;;;;;;4.93;2.63;;;;;;;;;;4877378;29;20511;-79
2021/08/10 07:12:33;;;;;;;6.22;3.15;;;;;;;;;;4879987;29;20036;-78
2021/08/10 07:14:59;;;;;;;8.17;3.33;;;;;;;;;;4878375;29;20126;-78
2021/08/10 07:17:24;;;;;;;8.00;2.92;;;;;;;;;;4876984;29;20286;-79
2021/08/10 07:19:49;;;;;;;6.18;3.40;;;;;;;;;;4877903;29;20452;-80
2021/08/10 07:22:15;;;;;;;7.32;2.80;;;;;;;;;;4877159;29;20077;-81
2021/08/10 07:24:40;;;;;;;8.38;2.60;;;;;;;;;;4886549;29;20020;-79
2021/08/10 07:27:05;;;;;;;5.53;2.83;;;;;;;;;;4875855;29;20029;-79
2021/08/10 07:29:31;;;;;;;6.80;2.45;;;;;;;;;;4876880;29;20700;-79
2021/08/10 07:31:57;;;;;;;12.75;8.50;;;;;;;;;;4875798;29;20031;-79
2021/08/10 07:34:23;;;;;;;7.93;5.07;;;;;;;;;;4879236;29;20060;-80
2021/08/10 07:36:48;;;;;;;8.15;3.55;;;;;;;;;;4876597;29;20480;-80
2021/08/10 07:39:14;;;;;;;7.20;3.13;;;;;;;;;;4882837;29;20026;-80
2021/08/10 07:41:39;;;;;;;8.35;2.67;;;;;;;;;;4883853;29;20021;-80
2021/08/10 07:44:04;;;;;;;7.95;3.90;;;;;;;;;;4886737;29;20020;-80
2021/08/10 07:46:30;;;;;;;5.43;2.80;;;;;;;;;;4884041;29;20025;-79
2021/08/10 07:48:55;;;;;;;9.33;3.10;;;;;;;;;;4882728;29;20060;-79
2021/08/10 07:51:20;;;;;;;8.07;2.80;;;;;;;;;;4876244;29;20033;-78
2021/08/10 07:53:46;;;;;;;6.30;2.70;;;;;;;;;;4876991;29;20025;-78
2021/08/10 07:56:12;;;;;;;8.80;3.08;;;;;;;;;;4876671;29;20044;-78
2021/08/10 07:58:37;;;;;;;3.90;2.55;;;;;;;;;;4877175;29;20520;-79
2021/08/10 08:01:04;;;;;;;4.37;2.43;;;;;;;;;;4876725;29;20025;-79
2021/08/10 08:03:29;;;;;;;5.82;2.70;;;;;;;;;;4875532;29;20345;-78
2021/08/10 08:05:54;;;;;;;7.57;3.07;;;;;;;;;;4876406;29;20032;-78
2021/08/10 08:08:20;;;;;;;6.63;3.07;;;;;;;;;;4876710;29;20025;-79
2021/08/10 08:10:45;;;;;;;6.68;2.80;;;;;;;;;;4878799;29;20701;-80
2021/08/10 08:13:11;;;;;;;5.32;2.47;;;;;;;;;;4876748;29;20021;-80
2021/08/10 08:15:36;;;;;;;6.82;2.83;;;;;;;;;;4876637;29;20040;-78
2021/08/10 08:18:02;;;;;;;4.22;2.40;;;;;;;;;;4875192;29;20117;-78
2021/08/10 08:20:27;;;;;;;20.65;12.77;;;;;;;;;;4877018;29;20029;-78
2021/08/10 08:22:53;;;;;;;14.95;9.52;;;;;;;;;;4876082;29;20027;-78
2021/08/10 08:25:18;;;;;;;6.88;3.35;;;;;;;;;;4875788;29;20028;-77
2021/08/10 08:27:43;;;;;;;5.18;2.83;;;;;;;;;;4882639;29;20025;-78
2021/08/10 08:30:09;;;;;;;7.95;2.80;;;;;;;;;;4876605;29;20028;-79
2021/08/10 08:32:35;;;;;;;6.15;2.80;;;;;;;;;;4874012;29;20068;-79
2021/08/10 08:35:00;;;;;;;4.82;2.58;;;;;;;;;;4875780;29;20036;-77
2021/08/10 08:37:25;;;;;;;5.57;2.95;;;;;;;;;;4875864;29;20025;-77
2021/08/10 08:39:51;;;;;;;7.75;2.65;;;;;;;;;;4878972;29;20036;-79
2021/08/10 08:42:17;;;;;;;7.25;2.67;;;;;;;;;;4870170;29;20031;-80
2021/08/10 08:44:42;;;;;;;8.10;2.30;;;;;;;;;;4885497;29;20396;-81
2021/08/10 08:47:08;;;;;;;10.45;2.83;;;;;;;;;;4889945;29;20357;-81
2021/08/10 08:49:34;;;;;;;4.60;3.05;;;;;;;;;;4887506;29;20345;-82
2021/08/10 08:52:01;;;;;;;4.80;2.50;;;;;;;;;;4886505;29;20108;-81
2021/08/10 08:54:26;;;;;;;4.82;2.33;;;;;;;;;;4891637;29;20340;-80
2021/08/10 08:56:52;;;;;;;7.50;2.60;;;;;;;;;;4886481;29;20036;-82
2021/08/10 08:59:18;;;;;;;8.18;2.45;;;;;;;;;;4891525;29;20025;-80
2021/08/10 09:01:43;;;;;;;5.18;2.70;;;;;;;;;;4876470;29;20025;-79
2021/08/10 09:04:09;;;;;;;6.05;2.63;;;;;;;;;;4888997;29;20534;-79
2021/08/10 09:06:34;;;;;;;7.38;3.33;;;;;;;;;;4884466;29;20018;-78
2021/08/10 09:09:18;;;;;;;8.18;3.30;;;;;;;;;;4890291;29;20052;-79
2021/08/10 09:11:47;;;;;;;7.63;2.72;;;;;;;;;;4863342;29;20112;-80
2021/08/10 09:14:12;;;;;;;5.13;2.60;;;;;;;;;;4892272;29;20479;-79
2021/08/10 09:16:37;;;;;;;5.90;2.38;;;;;;;;;;4880336;29;20258;-79
2021/08/10 09:19:02;;;;;;;7.23;2.10;;;;;;;;;;4887337;29;20092;-78
2021/08/10 09:21:28;;;;;;;4.57;1.93;;;;;;;;;;4888210;29;20107;-78
2021/08/10 09:23:54;;;;;;;4.85;2.25;;;;;;;;;;4884479;29;20097;-78
2021/08/10 09:26:24;;;;;;;5.50;2.15;;;;;;;;;;4884065;29;20380;-79
2021/08/10 09:28:49;;;;;;;;;;;;;;;;;;4877027;29;20045;-79
2021/08/10 09:31:28;;;;;;;4.25;2.05;;;;;;;;;;4886360;29;20366;-79
2021/08/10 09:33:55;;;;;;;4.50;2.03;;;;;;;;;;4886472;29;20497;-79
2021/08/10 09:36:20;;;;;;;4.95;2.05;;;;;;;;;;4877922;29;20096;-78
2021/08/10 09:38:47;;;;;;;4.28;2.28;;;;;;;;;;4880995;29;20028;-77
2021/08/10 09:41:14;;;;;;;7.03;2.35;;;;;;;;;;4877231;29;20335;-77
2021/08/10 09:43:40;;;;;;;17.05;12.77;;;;;;;;;;4874580;29;20584;-79
2021/08/10 09:46:16;;;;;;;12.60;7.70;;;;;;;;;;4875308;29;20029;-76
2021/08/10 09:48:53;;;;;;;4.07;2.50;;;;;;;;;;4878562;29;20337;-77
2021/08/10 09:51:22;;;;;;;4.05;1.92;;;;;;;;;;4874542;29;20411;-77
2021/08/10 09:53:53;;;;;;;4.00;2.00;;;;;;;;;;4875078;29;20017;-77
2021/08/10 09:56:18;;;;;;;5.07;1.92;;;;;;;;;;4875850;29;20025;-78
2021/08/10 09:59:00;;;;;;;4.43;2.03;;;;;;;;;;4876956;29;20044;-78
2021/08/10 10:01:28;;;;;;;3.45;2.00;;;;;;;;;;4874183;29;20021;-78
2021/08/10 10:04:06;;;;;;;5.38;2.10;;;;;;;;;;4874319;29;20072;-77
2021/08/10 10:06:32;;;;;;;3.53;1.80;;;;;;;;;;4874873;29;20029;-79
2021/08/10 10:08:57;;;;;;;6.88;2.25;;;;;;;;;;4875938;29;20703;-79
2021/08/10 10:11:23;;;;;;;10.27;1.90;;;;;;;;;;4874742;29;20025;-80
2021/08/10 10:13:49;;;;;;;5.68;2.40;;;;;;;;;;4874211;29;20100;-79
2021/08/10 10:16:14;;;;;;;3.75;2.05;;;;;;;;;;4874276;29;20017;-79
2021/08/10 10:18:40;;;;;;;8.95;3.00;;;;;;;;;;4874323;29;20030;-79
2021/08/10 10:21:05;;;;;;;4.50;2.05;;;;;;;;;;4875109;29;20372;-80
2021/08/10 10:23:31;;;;;;;5.80;2.08;;;;;;;;;;4874696;29;20013;-78
2021/08/10 10:26:00;;;;;;;4.78;2.45;;;;;;;;;;4877930;29;20017;-79
2021/08/10 10:28:30;;;;;;;5.40;2.25;;;;;;;;;;4877947;29;20442;-78
2021/08/10 10:30:56;;;;;;;7.95;2.20;;;;;;;;;;4884565;29;20385;-79
2021/08/10 10:33:21;;;;;;;2.88;1.67;;;;;;;;;;4883088;29;20492;-81
2021/08/10 10:35:49;;;;;;;4.20;1.80;;;;;;;;;;4878786;29;20097;-80
2021/08/10 10:38:16;;;;;;;6.30;2.40;;;;;;;;;;4881703;29;20029;-79
2021/08/10 10:40:41;;;;;;;7.85;1.90;;;;;;;;;;4876638;29;20425;-79
2021/08/10 10:43:07;;;;;;;8.10;2.88;;;;;;;;;;4879718;29;20014;-78
2021/08/10 10:45:37;;;;;;;3.35;2.20;;;;;;;;;;4876783;29;20647;-79
2021/08/10 10:48:21;;;;;;;5.32;2.25;;;;;;;;;;4877096;29;20036;-78
2021/08/10 10:51:03;;;;;;;6.05;2.25;;;;;;;;;;4880135;29;20321;-80
2021/08/10 10:53:29;;;;;;;9.70;2.75;;;;;;;;;;4882127;29;20025;-79
2021/08/10 10:55:54;;;;;;;3.72;2.00;;;;;;;;;;4879761;29;20036;-80
2021/08/10 10:58:24;;;;;;;3.50;1.95;;;;;;;;;;4878347;29;20025;-78
2021/08/10 11:01:08;;;;;;;7.28;2.30;;;;;;;;;;4879275;29;20404;-79
2021/08/10 11:03:33;;;;;;;7.13;2.50;;;;;;;;;;4876810;29;20602;-79
2021/08/10 11:06:19;;;;;;;3.50;2.22;;;;;;;;;;4879098;29;20032;-79
2021/08/10 11:08:44;;;;;;;3.15;1.88;;;;;;;;;;4875131;29;20021;-80
2021/08/10 11:11:29;;;;;;;5.93;2.27;;;;;;;;;;4877153;29;20107;-79
2021/08/10 11:13:54;;;;;;;4.10;2.47;;;;;;;;;;4879686;29;20224;-82
2021/08/10 11:16:19;;;;;;;3.73;2.20;;;;;;;;;;4865042;29;21717;-78
2021/08/10 11:18:45;;;;;;;3.97;2.10;;;;;;;;;;4877051;29;20033;-79
2021/08/10 11:21:10;;;;;;;5.30;2.50;;;;;;;;;;4880449;29;20878;-79
2021/08/10 11:23:36;;;;;;;5.20;2.30;;;;;;;;;;4866007;29;20024;-79
2021/08/10 11:26:02;;;;;;;4.90;2.10;;;;;;;;;;4876806;29;20384;-78
2021/08/10 11:28:28;;;;;;;6.90;2.63;;;;;;;;;;4879607;29;20016;-78
2021/08/10 11:30:54;;;;;;;4.50;2.08;;;;;;;;;;4876481;29;20096;-78
2021/08/10 11:33:36;;;;;;;5.57;2.17;;;;;;;;;;4887451;29;20439;-79
2021/08/10 11:36:14;;;;;;;5.90;2.25;;;;;;;;;;4882286;29;20047;-78
2021/08/10 11:38:51;;;;;;;3.58;2.10;;;;;;;;;;4892793;29;20020;-78
2021/08/10 11:41:35;;;;;;;6.70;2.30;;;;;;;;;;4893278;29;20417;-77
2021/08/10 11:44:03;;;;;;;5.50;2.10;;;;;;;;;;4893130;29;20033;-77
2021/08/10 11:46:33;;;;;;;3.30;2.10;;;;;;;;;;4879247;29;20226;-78
2021/08/10 11:49:00;;;;;;;4.45;2.33;;;;;;;;;;4877059;29;20128;-77
2021/08/10 11:51:30;;;;;;;3.67;2.10;;;;;;;;;;4885069;29;20527;-77
2021/08/10 11:53:58;;;;;;;4.82;2.58;;;;;;;;;;4890933;29;20732;-77
2021/08/10 11:56:27;;;;;;;5.63;2.10;;;;;;;;;;4888735;29;20033;-78
2021/08/10 11:58:53;;;;;;;4.22;2.40;;;;;;;;;;4880994;29;20392;-78
2021/08/10 12:01:18;;;;;;;7.80;2.33;;;;;;;;;;4881091;29;20021;-79
2021/08/10 12:03:47;;;;;;;9.90;4.78;;;;;;;;;;4871766;29;20124;-79
2021/08/10 12:06:12;;;;;;;13.07;7.47;;;;;;;;;;4869889;29;20049;-78
2021/08/10 12:08:39;;;;;;;7.00;2.85;;;;;;;;;;4870194;29;20059;-78
2021/08/10 12:11:04;;;;;;;4.50;2.60;;;;;;;;;;4876594;29;20476;-80
2021/08/10 12:13:30;;;;;;;9.43;3.42;;;;;;;;;;4870843;29;20032;-81
2021/08/10 12:15:55;;;;;;;4.00;2.17;;;;;;;;;;4873354;29;20077;-80
2021/08/10 12:18:22;;;;;;;4.30;2.80;;;;;;;;;;4871443;29;20039;-78
2021/08/10 12:20:57;;;;;;;5.45;2.53;;;;;;;;;;4871066;29;20025;-78
2021/08/10 12:23:23;;;;;;;6.28;2.40;;;;;;;;;;4871133;29;20048;-80
2021/08/10 12:25:48;;;;;;;6.95;2.55;;;;;;;;;;4877633;29;20033;-79
2021/08/10 12:28:14;;;;;;;5.03;2.50;;;;;;;;;;4871712;29;20084;-77
2021/08/10 12:30:42;;;;;;;3.77;2.17;;;;;;;;;;4873205;29;20020;-77
2021/08/10 12:33:21;;;;;;;9.07;4.63;;;;;;;;;;4874733;29;20060;-78
2021/08/10 12:35:57;;;;;;;6.28;3.42;;;;;;;;;;4876738;29;20395;-79
2021/08/10 12:38:23;;;;;;;10.85;6.63;;;;;;;;;;4881374;29;20043;-78
2021/08/10 12:40:48;;;;;;;5.15;2.95;;;;;;;;;;4880852;29;20429;-79
2021/08/10 12:43:14;;;;;;;6.97;2.88;;;;;;;;;;4875611;29;20021;-79
2021/08/10 12:45:39;;;;;;;5.60;2.70;;;;;;;;;;4876391;29;20080;-77
2021/08/10 12:48:22;;;;;;;7.33;3.17;;;;;;;;;;4877235;29;20059;-81
2021/08/10 12:50:55;;;;;;;9.63;7.40;;;;;;;;;;4866072;29;20115;-79
2021/08/10 12:53:30;;;;;;;13.07;8.45;;;;;;;;;;4875932;29;20140;-80
2021/08/10 12:55:58;;;;;;;7.57;4.07;;;;;;;;;;4875211;29;20092;-78
2021/08/10 12:58:24;;;;;;;5.75;2.67;;;;;;;;;;4874417;29;20036;-79
2021/08/10 13:00:56;;;;;;;5.78;3.25;;;;;;;;;;4877059;29;20021;-83
2021/08/10 13:03:22;;;;;;;5.25;2.75;;;;;;;;;;4876090;29;20651;-80
2021/08/10 13:05:47;;;;;;;4.57;2.70;;;;;;;;;;4877844;29;20482;-81
2021/08/10 13:08:13;;;;;;;4.00;3.35;;;;;;;;;;4876918;29;20049;-79
2021/08/10 13:10:40;;;;;;;5.55;3.03;;;;;;;;;;4876358;29;20021;-80
2021/08/10 13:13:07;;;;;;;5.03;3.05;;;;;;;;;;4877873;29;20040;-81
2021/08/10 13:15:39;;;;;;;7.85;3.33;;;;;;;;;;4877155;29;20521;-80
2021/08/10 13:18:12;;;;;;;4.90;2.50;;;;;;;;;;4888504;29;20356;-80
2021/08/10 13:20:46;;;;;;;6.40;3.00;;;;;;;;;;4875652;29;20017;-79
2021/08/10 13:23:14;;;;;;;3.63;2.72;;;;;;;;;;4877564;29;20385;-81
2021/08/10 13:25:51;;;;;;;5.50;2.90;;;;;;;;;;4877711;29;20048;-80
2021/08/10 13:28:16;;;;;;;7.22;3.17;;;;;;;;;;4875580;29;20708;-79
2021/08/10 13:30:42;;;;;;;6.50;2.50;;;;;;;;;;4874794;29;20164;-80
2021/08/10 13:33:07;;;;;;;5.82;2.58;;;;;;;;;;4871006;29;20040;-80
2021/08/10 13:35:33;;;;;;;5.97;2.78;;;;;;;;;;4876195;29;20029;-79
2021/08/10 13:37:59;;;;;;;7.32;3.45;;;;;;;;;;4878663;29;20441;-80
2021/08/10 13:40:24;;;;;;;7.60;5.40;;;;;;;;;;4884335;29;20024;-81
2021/08/10 13:42:49;;;;;;;7.03;2.70;;;;;;;;;;4888163;29;20476;-79
2021/08/10 13:45:15;;;;;;;9.83;3.40;;;;;;;;;;4889246;29;20017;-79
2021/08/10 13:47:40;;;;;;;7.38;3.25;;;;;;;;;;4888707;29;20029;-79
2021/08/10 13:50:06;;;;;;;6.13;2.70;;;;;;;;;;4888279;29;20101;-79
2021/08/10 13:52:31;;;;;;;4.43;3.05;;;;;;;;;;4888550;29;20024;-79
2021/08/10 13:54:56;;;;;;;4.82;2.97;;;;;;;;;;4884793;29;20059;-79
2021/08/10 13:57:24;;;;;;;6.63;2.97;;;;;;;;;;4887002;29;20017;-80
2021/08/10 13:59:49;;;;;;;7.13;2.63;;;;;;;;;;4877630;29;20292;-78
2021/08/10 14:02:16;;;;;;;5.95;2.67;;;;;;;;;;4882555;29;20417;-79
2021/08/10 14:04:41;;;;;;;5.40;2.70;;;;;;;;;;4880026;29;20037;-79
2021/08/10 14:07:06;;;;;;;4.40;2.50;;;;;;;;;;4888883;29;20468;-79
2021/08/10 14:09:39;;;;;;;4.03;2.45;;;;;;;;;;4894043;29;20025;-79
2021/08/10 14:12:07;;;;;;;5.68;2.55;;;;;;;;;;4891094;29;20021;-79
2021/08/10 14:14:32;;;;;;;8.10;2.75;;;;;;;;;;4891707;29;20643;-79
2021/08/10 14:16:58;;;;;;;3.73;2.53;;;;;;;;;;4892185;29;20031;-79
2021/08/10 14:19:23;;;;;;;5.53;2.97;;;;;;;;;;4878101;29;20084;-77
2021/08/10 14:21:48;;;;;;;4.68;2.92;;;;;;;;;;4877610;29;20277;-78
2021/08/10 14:24:14;;;;;;;9.18;3.60;;;;;;;;;;4879526;29;20013;-78
2021/08/10 14:26:39;;;;;;;5.88;3.10;;;;;;;;;;4880261;29;20017;-78
2021/08/10 14:29:05;;;;;;;8.07;2.60;;;;;;;;;;4876733;29;20244;-78
2021/08/10 14:31:30;;;;;;;12.48;3.08;;;;;;;;;;4877584;29;20121;-78
2021/08/10 14:33:56;;;;;;;5.63;2.35;;;;;;;;;;4885768;29;20033;-79
2021/08/10 14:36:21;;;;;;;6.60;2.93;;;;;;;;;;4880181;29;20025;-77
2021/08/10 14:38:46;;;;;;;8.20;2.65;;;;;;;;;;4881297;29;20028;-79
2021/08/10 14:41:11;;;;;;;6.07;2.83;;;;;;;;;;4867403;29;20077;-79